Terminal Aerodrome Forecast
Issued by NWS

Home | Current Version | Previous Version | Text Only | Print | Product List | Glossary On
Versions: 1 2 3 4 5 6 7 8 9 10 11 12 13 14 15 16 17 18
000
FTUS43 KGRR 211744
TAFAZO
TAF
KAZO 211744Z 2118/2218 27015G25KT 6SM -RA SCT020 OVC035
     FM212300 31011KT P6SM -SHSN OVC035
     FM220400 33007KT P6SM BKN040=

USA.gov is the U.S. government's official web portal to all federal, state and local government web resources and services.